Airport View

Enter AWOS ICAO identifier for current METAR.

ex. KFNL

KDVN 290452Z AUTO 28007KT 10SM CLR 09/07 A2993 RMK AO2 SLP131 T00890067

29 Sep 2020 05:03

Frequency: 120.175

Phone: 563-388-2154

Other Area AWOS: KMLI - KCWI - KMUT - KSFY

TAF KMLI 282341Z 2900/2924 30011KT P6SM VCSH SCT040 BKN080 FM290300 30007KT P6SM SCT030 BKN060 FM291500 25013G21KT P6SM SCT025 BKN035